Time;durP1;ratioP1;P1;durP2;ratioP2;P2;SDS_P1;SDS_P2;PMS_P1;PMS_P2;Temp;Humidity;BMP_temperature;BMP_pressure;BME280_temperature;BME280_humidity;BME280_pressure;Samples;Min_cycle;Max_cycle;Signal;HPM_P1;HPM_P2
2021/10/04 00:02:09;;;;;;;4.25;0.85;;;;;;;-139.48;100.00;61774.03;4975395;28;20057;-68
2021/10/04 00:04:53;;;;;;;0.95;0.80;;;;;;;-139.48;100.00;61774.03;4946960;28;20053;-68
2021/10/04 00:07:37;;;;;;;0.82;0.70;;;;;;;-139.48;100.00;61774.03;4960432;28;20069;-68
2021/10/04 00:10:21;;;;;;;2.92;0.90;;;;;;;-139.48;100.00;61774.03;4960522;28;20052;-68
2021/10/04 00:13:05;;;;;;;1.15;0.93;;;;;;;-139.48;100.00;61774.03;4960682;28;20062;-69
2021/10/04 00:15:49;;;;;;;3.13;1.10;;;;;;;-139.48;100.00;61774.03;4960494;28;20132;-69
2021/10/04 00:18:39;;;;;;;1.08;0.90;;;;;;;-139.48;100.00;61774.03;4947041;28;20499;-68
2021/10/04 00:21:23;;;;;;;3.15;0.90;;;;;;;-139.48;100.00;61774.03;4975081;28;20404;-69
2021/10/04 00:24:07;;;;;;;1.70;1.00;;;;;;;-139.48;100.00;61774.03;4960246;28;20122;-69
2021/10/04 00:26:51;;;;;;;2.65;0.82;;;;;;;-139.48;100.00;61774.03;4974838;28;20097;-69
2021/10/04 00:29:35;;;;;;;5.28;1.30;;;;;;;-139.48;100.00;61774.03;4960311;28;20105;-69
2021/10/04 00:32:18;;;;;;;1.77;0.93;;;;;;;-139.48;100.00;61774.03;4959900;28;20423;-69
2021/10/04 00:35:04;;;;;;;5.18;1.20;;;;;;;-139.48;100.00;61774.03;4960070;28;20515;-69
2021/10/04 00:37:48;;;;;;;2.38;0.90;;;;;;;-139.48;100.00;61774.03;4959793;28;20142;-70
2021/10/04 00:40:34;;;;;;;1.35;1.08;;;;;;;-139.48;100.00;61774.03;4946763;28;20045;-69
2021/10/04 00:43:20;;;;;;;1.05;0.85;;;;;;;-139.48;100.00;61774.03;4960423;28;20053;-70
2021/10/04 00:46:05;;;;;;;1.00;0.90;;;;;;;-139.48;100.00;61774.03;4946771;28;20049;-70
2021/10/04 00:48:50;;;;;;;6.30;1.00;;;;;;;-139.48;100.00;61774.03;4959928;28;20431;-70
2021/10/04 00:51:34;;;;;;;1.98;1.05;;;;;;;-139.48;100.00;61774.03;4946234;28;20113;-71
2021/10/04 00:54:18;;;;;;;1.77;1.10;;;;;;;-139.48;100.00;61774.03;4946554;28;20046;-70
2021/10/04 00:57:02;;;;;;;6.10;1.00;;;;;;;-139.48;100.00;61774.03;4974741;28;20049;-70
2021/10/04 00:59:46;;;;;;;1.23;0.90;;;;;;;-139.48;100.00;61774.03;4959829;28;20093;-69
2021/10/04 01:02:32;;;;;;;3.08;1.23;;;;;;;-139.48;100.00;61774.03;4959767;28;20514;-70
2021/10/04 01:05:16;;;;;;;1.10;0.77;;;;;;;-139.48;100.00;61774.03;4946731;28;20046;-69
2021/10/04 01:08:02;;;;;;;1.00;0.80;;;;;;;-139.48;100.00;61774.03;4959979;28;20530;-70
2021/10/04 01:10:47;;;;;;;2.45;0.98;;;;;;;-139.48;100.00;61774.03;4960129;28;20049;-70
2021/10/04 01:13:31;;;;;;;1.42;1.10;;;;;;;-139.48;100.00;61774.03;4974477;28;20520;-69
2021/10/04 01:16:15;;;;;;;2.30;1.10;;;;;;;-139.48;100.00;61774.03;4960151;28;20558;-70
2021/10/04 01:19:02;;;;;;;1.67;0.98;;;;;;;-139.48;100.00;61774.03;4959846;28;20113;-70
2021/10/04 01:21:46;;;;;;;1.77;1.30;;;;;;;-139.48;100.00;61774.03;4947714;28;20049;-70
2021/10/04 01:24:30;;;;;;;2.55;1.20;;;;;;;-139.48;100.00;61774.03;4960089;28;20050;-69
2021/10/04 01:27:13;;;;;;;1.35;1.08;;;;;;;-139.48;100.00;61774.03;4974239;28;20054;-70
2021/10/04 01:29:57;;;;;;;3.05;1.45;;;;;;;-139.48;100.00;61774.03;4946145;28;20053;-69
2021/10/04 01:32:42;;;;;;;4.07;1.45;;;;;;;-139.48;100.00;61774.03;4959740;28;20507;-70
2021/10/04 01:35:26;;;;;;;7.55;1.15;;;;;;;-139.48;100.00;61774.03;4959585;28;20384;-70
2021/10/04 01:38:10;;;;;;;4.50;1.23;;;;;;;-139.48;100.00;61774.03;4959721;28;20046;-70
2021/10/04 01:40:54;;;;;;;2.25;1.35;;;;;;;-139.48;100.00;61774.03;4959612;28;20182;-70
2021/10/04 01:43:38;;;;;;;6.72;1.63;;;;;;;-139.48;100.00;61774.03;4974047;28;20141;-70
2021/10/04 01:46:23;;;;;;;3.17;1.10;;;;;;;-139.48;100.00;61774.03;4959537;28;20137;-70
2021/10/04 01:49:07;;;;;;;3.17;1.40;;;;;;;-139.48;100.00;61774.03;4974242;28;20560;-70
2021/10/04 01:51:51;;;;;;;1.58;1.38;;;;;;;-139.48;100.00;61774.03;4977612;28;20046;-70
2021/10/04 01:54:35;;;;;;;3.13;1.52;;;;;;;-139.48;100.00;61774.03;4949385;28;20049;-69
2021/10/04 01:57:19;;;;;;;6.45;1.60;;;;;;;-139.48;100.00;61774.03;4963059;28;20416;-70
2021/10/04 02:00:10;;;;;;;1.92;1.42;;;;;;;-139.48;100.00;61774.03;4963008;28;20464;-70
2021/10/04 02:02:55;;;;;;;7.68;1.40;;;;;;;-139.48;100.00;61774.03;4962767;28;20130;-69
2021/10/04 02:05:39;;;;;;;1.50;1.20;;;;;;;-139.48;100.00;61774.03;4962953;28;20061;-70
2021/10/04 02:08:23;;;;;;;1.20;1.10;;;;;;;-139.48;100.00;61774.03;4962692;28;20057;-70
2021/10/04 02:11:07;;;;;;;2.42;1.42;;;;;;;-139.48;100.00;61774.03;4962590;28;20105;-69
2021/10/04 02:13:51;;;;;;;1.13;1.02;;;;;;;-139.48;100.00;61774.03;4962545;28;20569;-69
2021/10/04 02:16:35;;;;;;;2.20;1.10;;;;;;;-139.48;100.00;61774.03;4962848;28;20166;-70
2021/10/04 02:19:19;;;;;;;1.55;1.17;;;;;;;-139.48;100.00;61774.03;4962741;28;20113;-70
2021/10/04 02:22:04;;;;;;;1.20;0.90;;;;;;;-139.48;100.00;61774.03;4962353;28;20066;-70
2021/10/04 02:24:48;;;;;;;1.73;1.05;;;;;;;-139.48;100.00;61774.03;4976987;28;20053;-70
2021/10/04 02:27:32;;;;;;;2.03;1.52;;;;;;;-139.48;100.00;61774.03;4962603;28;20049;-70
2021/10/04 02:30:20;;;;;;;4.35;1.25;;;;;;;-139.48;100.00;61774.03;4962182;28;20058;-69
2021/10/04 02:33:05;;;;;;;1.60;1.10;;;;;;;-139.48;100.00;61774.03;4962596;28;20057;-70
2021/10/04 02:35:49;;;;;;;3.75;0.95;;;;;;;-139.48;100.00;61774.03;4977144;28;20053;-69
2021/10/04 02:38:33;;;;;;;4.15;1.20;;;;;;;-139.48;100.00;61774.03;4962097;28;20085;-70
2021/10/04 02:41:17;;;;;;;1.33;1.17;;;;;;;-139.48;100.00;61774.03;4962290;28;20086;-69
2021/10/04 02:44:04;;;;;;;2.20;1.20;;;;;;;-139.48;100.00;61774.03;4962310;28;20046;-69
2021/10/04 02:46:48;;;;;;;3.28;1.35;;;;;;;-139.48;100.00;61774.03;4962026;28;20169;-69
2021/10/04 02:49:32;;;;;;;10.10;1.40;;;;;;;-139.48;100.00;61774.03;4962091;28;20411;-70
2021/10/04 02:52:17;;;;;;;2.22;1.25;;;;;;;-139.48;100.00;61774.03;4948608;28;20467;-69
2021/10/04 02:55:01;;;;;;;3.38;1.13;;;;;;;-139.48;100.00;61774.03;4976919;28;20101;-69
2021/10/04 02:57:45;;;;;;;1.73;1.38;;;;;;;-139.48;100.00;61774.03;4962024;28;20146;-69
2021/10/04 03:00:33;;;;;;;2.67;1.10;;;;;;;-139.48;100.00;61774.03;4948147;28;20106;-69
2021/10/04 03:03:17;;;;;;;3.78;1.23;;;;;;;-139.48;100.00;61774.03;4961695;28;20050;-69
2021/10/04 03:06:01;;;;;;;3.72;1.35;;;;;;;-139.48;100.00;61774.03;4976317;28;20174;-69
2021/10/04 03:08:45;;;;;;;5.60;1.38;;;;;;;-139.48;100.00;61774.03;4961884;28;20202;-67
2021/10/04 03:11:29;;;;;;;1.40;1.20;;;;;;;-139.48;100.00;61774.03;4976052;28;20074;-69
2021/10/04 03:14:13;;;;;;;2.55;0.90;;;;;;;-139.48;100.00;61774.03;4961946;28;20133;-69
2021/10/04 03:16:57;;;;;;;1.50;1.25;;;;;;;-139.48;100.00;61774.03;4961776;28;20142;-70
2021/10/04 03:19:41;;;;;;;1.58;1.20;;;;;;;-139.48;100.00;61774.03;4961881;28;20404;-69
2021/10/04 03:22:25;;;;;;;1.50;1.20;;;;;;;-139.48;100.00;61774.03;4947984;28;20053;-69
2021/10/04 03:25:09;;;;;;;5.65;1.27;;;;;;;-139.48;100.00;61774.03;4948019;28;20106;-70
2021/10/04 03:27:53;;;;;;;4.05;1.00;;;;;;;-139.48;100.00;61774.03;4961483;28;20098;-69
2021/10/04 03:30:38;;;;;;;1.15;1.00;;;;;;;-139.48;100.00;61774.03;4961057;28;20465;-69
2021/10/04 03:33:22;;;;;;;2.88;1.15;;;;;;;-139.48;100.00;61774.03;4961416;28;20499;-69
2021/10/04 03:36:09;;;;;;;7.40;1.05;;;;;;;-139.48;100.00;61774.03;4961349;28;20511;-69
2021/10/04 03:38:53;;;;;;;1.35;1.00;;;;;;;-139.48;100.00;61774.03;4947384;28;20507;-69
2021/10/04 03:41:37;;;;;;;1.75;1.15;;;;;;;-139.48;100.00;61774.03;4961013;28;20523;-69
2021/10/04 03:44:22;;;;;;;1.27;1.02;;;;;;;-139.48;100.00;61774.03;4947592;28;20058;-70
2021/10/04 03:47:06;;;;;;;4.82;1.50;;;;;;;-139.48;100.00;61774.03;4961487;28;20456;-69
2021/10/04 03:49:53;;;;;;;1.35;1.20;;;;;;;-139.48;100.00;61774.03;4947459;28;20049;-70
2021/10/04 03:52:38;;;;;;;2.90;1.50;;;;;;;-139.48;100.00;61774.03;4975403;28;20130;-70
2021/10/04 03:55:22;;;;;;;2.08;1.00;;;;;;;-139.48;100.00;61774.03;4960877;28;20053;-69
2021/10/04 03:58:08;;;;;;;3.72;0.90;;;;;;;-139.48;100.00;61774.03;4960735;28;20082;-68
2021/10/04 04:00:52;;;;;;;1.60;0.93;;;;;;;-139.48;100.00;61774.03;4975567;28;20415;-69
2021/10/04 04:03:35;;;;;;;3.60;1.10;;;;;;;-139.48;100.00;61774.03;4975768;28;20046;-69
2021/10/04 04:06:20;;;;;;;2.65;0.90;;;;;;;-139.48;100.00;61774.03;4960650;28;20053;-69
2021/10/04 04:09:07;;;;;;;2.55;1.02;;;;;;;-139.48;100.00;61774.03;4947459;28;20123;-69
2021/10/04 04:11:51;;;;;;;1.77;0.90;;;;;;;-139.48;100.00;61774.03;4960245;28;20118;-69
2021/10/04 04:14:38;;;;;;;1.73;1.10;;;;;;;-139.48;100.00;61774.03;4975081;28;20477;-69
2021/10/04 04:17:22;;;;;;;13.60;1.35;;;;;;;-139.48;100.00;61774.03;4960618;28;20117;-69
2021/10/04 04:20:07;;;;;;;4.70;1.02;;;;;;;-139.48;100.00;61774.03;4946873;28;20113;-69
2021/10/04 04:22:51;;;;;;;2.13;1.40;;;;;;;-139.48;100.00;61774.03;4946858;28;20054;-67
2021/10/04 04:25:35;;;;;;;2.50;0.90;;;;;;;-139.48;100.00;61774.03;4960246;28;20474;-70
2021/10/04 04:28:18;;;;;;;1.98;1.10;;;;;;;-139.48;100.00;61774.03;4946980;28;20057;-70
2021/10/04 04:31:02;;;;;;;3.83;1.10;;;;;;;-139.48;100.00;61774.03;4960090;28;20138;-70
2021/10/04 04:33:46;;;;;;;5.93;1.42;;;;;;;-139.48;100.00;61774.03;4946835;28;20439;-69
2021/10/04 04:36:33;;;;;;;3.35;1.10;;;;;;;-139.48;100.00;61774.03;4960344;28;20141;-69
2021/10/04 04:39:17;;;;;;;5.47;1.42;;;;;;;-139.48;100.00;61774.03;4960262;28;20423;-69
2021/10/04 04:42:03;;;;;;;1.25;1.05;;;;;;;-139.48;100.00;61774.03;4960129;28;20041;-69
2021/10/04 04:44:47;;;;;;;2.40;1.48;;;;;;;-139.48;100.00;61774.03;4960255;28;20049;-70
2021/10/04 04:47:31;;;;;;;2.28;1.25;;;;;;;-139.48;100.00;61774.03;4960192;28;20046;-69
2021/10/04 04:50:17;;;;;;;2.10;1.27;;;;;;;-139.48;100.00;61774.03;4959841;28;20053;-70
2021/10/04 04:53:01;;;;;;;3.25;1.15;;;;;;;-139.48;100.00;61774.03;4946953;28;20062;-70
2021/10/04 04:55:44;;;;;;;3.53;1.88;;;;;;;-139.48;100.00;61774.03;4959884;28;20046;-69
2021/10/04 04:58:28;;;;;;;2.10;1.35;;;;;;;-139.48;100.00;61774.03;4959884;28;20419;-69
2021/10/04 05:01:16;;;;;;;5.03;1.50;;;;;;;-139.48;100.00;61774.03;4959985;28;20045;-69
2021/10/04 05:04:00;;;;;;;5.63;1.55;;;;;;;-139.48;100.00;61774.03;4960350;28;20050;-70
2021/10/04 05:06:44;;;;;;;1.88;1.15;;;;;;;-139.48;100.00;61774.03;4959730;28;20106;-69
2021/10/04 05:09:28;;;;;;;2.42;1.40;;;;;;;-139.48;100.00;61774.03;4974530;28;20105;-69
2021/10/04 05:12:12;;;;;;;3.28;1.73;;;;;;;-139.48;100.00;61774.03;4946036;28;20101;-69
2021/10/04 05:14:56;;;;;;;2.42;1.70;;;;;;;-139.48;100.00;61774.03;4959732;28;20569;-70
2021/10/04 05:17:41;;;;;;;2.67;1.70;;;;;;;-139.48;100.00;61774.03;4974559;28;20109;-69
2021/10/04 05:20:26;;;;;;;4.80;1.90;;;;;;;-139.48;100.00;61774.03;4959869;28;20093;-69
2021/10/04 05:23:09;;;;;;;2.58;1.88;;;;;;;-139.48;100.00;61774.03;4946250;28;20131;-69
2021/10/04 05:25:53;;;;;;;;;;;;;;;-139.48;100.00;61774.03;4964038;28;20141;-69
2021/10/04 05:28:37;;;;;;;6.55;2.63;;;;;;;-139.48;100.00;61774.03;4963717;28;20391;-69
2021/10/04 05:31:22;;;;;;;4.22;2.47;;;;;;;-139.48;100.00;61774.03;4963231;28;20050;-70
2021/10/04 05:34:05;;;;;;;5.13;2.70;;;;;;;-139.48;100.00;61774.03;4963380;28;20070;-69
2021/10/04 05:36:50;;;;;;;4.50;2.75;;;;;;;-139.48;100.00;61774.03;4950390;28;20104;-69
2021/10/04 05:39:34;;;;;;;6.60;3.20;;;;;;;-139.48;100.00;61774.03;4963473;28;20197;-71
2021/10/04 05:42:18;;;;;;;6.72;3.60;;;;;;;-139.48;100.00;61774.03;4949487;28;20527;-70
2021/10/04 05:45:04;;;;;;;6.20;3.00;;;;;;;-139.48;100.00;61774.03;4963353;28;20069;-71
2021/10/04 05:47:48;;;;;;;8.65;3.35;;;;;;;-139.48;100.00;61774.03;4963315;28;20053;-70
2021/10/04 05:50:32;;;;;;;7.22;3.80;;;;;;;-139.48;100.00;61774.03;4962813;28;20053;-69
2021/10/04 05:53:17;;;;;;;5.35;3.33;;;;;;;-139.48;100.00;61774.03;4963137;28;20046;-71
2021/10/04 05:56:01;;;;;;;6.72;3.17;;;;;;;-139.48;100.00;61774.03;4963148;28;20534;-68
2021/10/04 05:58:48;;;;;;;5.13;2.97;;;;;;;-139.48;100.00;61774.03;4977646;28;20571;-70
2021/10/04 06:01:32;;;;;;;3.63;2.85;;;;;;;-139.48;100.00;61774.03;4962956;28;20065;-71
2021/10/04 06:04:16;;;;;;;3.97;2.97;;;;;;;-139.48;100.00;61774.03;4962726;28;20054;-70
2021/10/04 06:07:00;;;;;;;6.65;3.38;;;;;;;-139.48;100.00;61774.03;4977510;28;20049;-72
2021/10/04 06:09:44;;;;;;;5.97;2.90;;;;;;;-139.48;100.00;61774.03;4963078;28;20058;-70
2021/10/04 06:12:28;;;;;;;5.90;3.22;;;;;;;-139.48;100.00;61774.03;4977610;28;20502;-70
2021/10/04 06:15:14;;;;;;;7.10;3.33;;;;;;;-139.48;100.00;61774.03;4977566;28;20061;-70
2021/10/04 06:17:58;;;;;;;7.53;3.17;;;;;;;-139.48;100.00;61774.03;4962753;28;20049;-70
2021/10/04 06:20:42;;;;;;;5.07;3.20;;;;;;;-139.48;100.00;61774.03;4962705;28;20077;-70
2021/10/04 06:23:26;;;;;;;4.22;3.00;;;;;;;-139.48;100.00;61774.03;4949148;28;20050;-69
2021/10/04 06:26:10;;;;;;;5.65;2.63;;;;;;;-139.48;100.00;61774.03;4962438;28;20049;-70
2021/10/04 06:28:54;;;;;;;3.88;2.10;;;;;;;-139.48;100.00;61774.03;4962318;28;20046;-70
2021/10/04 06:31:38;;;;;;;4.47;2.28;;;;;;;-139.48;100.00;61774.03;4962066;28;20443;-70
2021/10/04 06:34:22;;;;;;;2.65;2.15;;;;;;;-139.48;100.00;61774.03;4962247;28;20097;-70
2021/10/04 06:37:06;;;;;;;3.00;1.92;;;;;;;-139.48;100.00;61774.03;4948127;28;20412;-70
2021/10/04 06:39:50;;;;;;;2.05;1.40;;;;;;;-139.48;100.00;61774.03;4948818;28;20095;-69
2021/10/04 06:42:35;;;;;;;2.97;1.58;;;;;;;-139.48;100.00;61774.03;4962349;28;20117;-70
2021/10/04 06:45:18;;;;;;;4.35;1.60;;;;;;;-139.48;100.00;61774.03;4962260;28;20073;-70
2021/10/04 06:48:03;;;;;;;2.13;1.60;;;;;;;-139.48;100.00;61774.03;4962240;28;20467;-70
2021/10/04 06:50:47;;;;;;;1.98;1.33;;;;;;;-139.48;100.00;61774.03;4948512;28;20178;-69
2021/10/04 06:53:34;;;;;;;2.50;1.70;;;;;;;-139.48;100.00;61774.03;4962417;28;20045;-70
2021/10/04 06:56:18;;;;;;;3.90;1.88;;;;;;;-139.48;100.00;61774.03;4947886;28;20054;-71
2021/10/04 06:59:02;;;;;;;2.95;1.95;;;;;;;-139.48;100.00;61774.03;4975588;28;20061;-70
2021/10/04 07:01:46;;;;;;;2.92;1.80;;;;;;;-139.48;100.00;61774.03;4961149;28;20053;-70
2021/10/04 07:04:30;;;;;;;5.95;1.85;;;;;;;-139.48;100.00;61774.03;4961373;28;20072;-70
2021/10/04 07:07:14;;;;;;;2.40;1.88;;;;;;;-139.48;100.00;61774.03;4961113;28;20053;-71
2021/10/04 07:09:58;;;;;;;3.40;1.83;;;;;;;-139.48;100.00;61774.03;4961103;28;20053;-71
2021/10/04 07:12:42;;;;;;;3.47;2.03;;;;;;;-139.48;100.00;61774.03;4975369;28;20104;-71
2021/10/04 07:15:26;;;;;;;3.22;2.55;;;;;;;-139.48;100.00;61774.03;4961399;28;20050;-71
2021/10/04 07:18:10;;;;;;;2.95;2.15;;;;;;;-139.48;100.00;61774.03;4947326;28;20507;-70
2021/10/04 07:20:54;;;;;;;3.17;1.83;;;;;;;-139.48;100.00;61774.03;4960651;28;20078;-70
2021/10/04 07:23:38;;;;;;;;;;;;;;;-139.48;100.00;61774.03;4960924;28;20467;-70
2021/10/04 07:26:23;;;;;;;3.35;1.70;;;;;;;-139.48;100.00;61774.03;4960913;28;19921;-71
2021/10/04 07:29:07;;;;;;;1.77;1.65;;;;;;;-139.48;100.00;61774.03;4960842;28;20409;-71
2021/10/04 07:31:51;;;;;;;4.70;1.80;;;;;;;-139.48;100.00;61774.03;4994369;23;20062;-64
2021/10/04 07:34:35;;;;;;;3.45;1.63;;;;;;;-139.48;100.00;61774.03;4975057;28;20467;-65
2021/10/04 07:37:19;;;;;;;3.22;1.80;;;;;;;-139.48;100.00;61774.03;4961456;28;20109;-65
2021/10/04 07:40:03;;;;;;;2.55;1.88;;;;;;;-139.48;100.00;61774.03;4974750;28;20050;-65
2021/10/04 07:42:47;;;;;;;3.70;1.50;;;;;;;-139.48;100.00;61774.03;4974777;28;20041;-64
2021/10/04 07:45:33;;;;;;;1.98;1.67;;;;;;;-139.48;100.00;61774.03;4974992;28;20057;-64
2021/10/04 07:48:17;;;;;;;4.10;2.17;;;;;;;-139.48;100.00;61774.03;4975775;28;20072;-65
2021/10/04 07:51:01;;;;;;;2.40;1.52;;;;;;;-139.48;100.00;61774.03;4975632;28;20050;-65
2021/10/04 07:53:47;;;;;;;3.10;1.65;;;;;;;-139.48;100.00;61774.03;4974578;28;20528;-65
2021/10/04 07:56:31;;;;;;;2.38;1.88;;;;;;;-139.48;100.00;61774.03;4974726;28;20101;-64
2021/10/04 07:59:15;;;;;;;4.88;2.08;;;;;;;-139.48;100.00;61774.03;4974922;28;20053;-65
2021/10/04 08:01:58;;;;;;;4.00;2.17;;;;;;;-139.48;100.00;61774.03;4974338;28;20094;-65
2021/10/04 08:04:43;;;;;;;3.63;1.90;;;;;;;-139.48;100.00;61774.03;4975588;28;20282;-65
2021/10/04 08:07:27;;;;;;;3.80;2.00;;;;;;;-139.48;100.00;61774.03;4975478;28;20050;-64
2021/10/04 08:10:11;;;;;;;5.38;2.20;;;;;;;-139.48;100.00;61774.03;4974091;28;20130;-65
2021/10/04 08:12:55;;;;;;;2.70;2.08;;;;;;;-139.48;100.00;61774.03;4974471;28;20412;-65
2021/10/04 08:15:40;;;;;;;4.20;1.65;;;;;;;-139.48;100.00;61774.03;4974468;28;20050;-65
2021/10/04 08:18:23;;;;;;;4.93;1.50;;;;;;;-139.48;100.00;61774.03;4974190;28;20141;-64
2021/10/04 08:21:07;;;;;;;2.20;2.00;;;;;;;-139.48;100.00;61774.03;4960565;28;20046;-65
2021/10/04 08:23:51;;;;;;;4.28;2.08;;;;;;;-139.48;100.00;61774.03;4960633;28;20053;-65
2021/10/04 08:26:35;;;;;;;3.13;1.90;;;;;;;-139.48;100.00;61774.03;4960267;28;20085;-65
2021/10/04 08:29:19;;;;;;;3.20;2.28;;;;;;;-139.48;100.00;61774.03;4973852;28;20464;-65
2021/10/04 08:32:04;;;;;;;2.67;1.80;;;;;;;-139.48;100.00;61774.03;4974931;28;20130;-64
2021/10/04 08:34:47;;;;;;;5.70;2.10;;;;;;;-139.48;100.00;61774.03;4960321;28;20471;-65
2021/10/04 08:37:32;;;;;;;3.05;1.90;;;;;;;-139.48;100.00;61774.03;4974122;28;20392;-64
2021/10/04 08:40:16;;;;;;;;;;;;;;;-139.48;100.00;61774.03;4974052;28;20042;-65
2021/10/04 08:43:00;;;;;;;2.17;1.65;;;;;;;-139.48;100.00;61774.03;4973791;28;19937;-65
2021/10/04 08:45:45;;;;;;;3.05;1.63;;;;;;;-139.48;100.00;61774.03;4974750;28;20097;-64
2021/10/04 08:48:29;;;;;;;3.40;1.90;;;;;;;-139.48;100.00;61774.03;4973604;28;20087;-64
2021/10/04 08:51:13;;;;;;;2.08;1.80;;;;;;;-139.48;100.00;61774.03;4973544;28;20101;-65
2021/10/04 08:53:57;;;;;;;4.18;1.67;;;;;;;-139.48;100.00;61774.03;4973865;28;20154;-65
2021/10/04 08:56:41;;;;;;;1.80;1.63;;;;;;;-139.48;100.00;61774.03;4973959;28;20129;-65
2021/10/04 08:59:26;;;;;;;3.72;1.70;;;;;;;-139.48;100.00;61774.03;4974324;28;20141;-65
2021/10/04 09:02:31;;;;;;;2.15;1.90;;;;;;;-139.48;100.00;61774.03;4973352;28;20105;-64
2021/10/04 09:05:23;;;;;;;1.38;1.25;;;;;;;-139.48;100.00;61774.03;4973788;28;20053;-65
2021/10/04 09:08:10;;;;;;;3.75;1.40;;;;;;;-139.48;100.00;61774.03;4973389;28;20065;-65
2021/10/04 09:10:57;;;;;;;1.52;1.33;;;;;;;-139.48;100.00;61774.03;4973268;28;20101;-65
2021/10/04 09:13:47;;;;;;;7.95;2.00;;;;;;;-139.48;100.00;61774.03;4973714;28;20069;-65
2021/10/04 09:16:59;;;;;;;1.58;1.48;;;;;;;-139.48;100.00;61774.03;4974638;28;20110;-65
2021/10/04 09:19:44;;;;;;;1.30;1.17;;;;;;;-139.48;100.00;61774.03;4973399;28;20053;-65
2021/10/04 09:22:28;;;;;;;1.73;1.40;;;;;;;-139.48;100.00;61774.03;4974285;28;20411;-65
2021/10/04 09:25:12;;;;;;;1.63;1.00;;;;;;;-139.48;100.00;61774.03;4973371;28;20102;-65
2021/10/04 09:28:03;;;;;;;3.60;1.40;;;;;;;-139.48;100.00;61774.03;4974414;28;20054;-65
2021/10/04 09:30:46;;;;;;;2.45;1.50;;;;;;;-139.48;100.00;61774.03;4959368;28;20109;-65
2021/10/04 09:33:30;;;;;;;2.00;1.70;;;;;;;-139.48;100.00;61774.03;4973224;28;20078;-65
2021/10/04 09:36:18;;;;;;;3.90;1.60;;;;;;;-139.48;100.00;61774.03;4959650;28;20127;-65
2021/10/04 09:39:14;;;;;;;1.60;1.25;;;;;;;-139.48;100.00;61774.03;4973293;28;20100;-65
2021/10/04 09:42:04;;;;;;;2.75;1.48;;;;;;;-139.48;100.00;61774.03;4974336;28;20058;-65
2021/10/04 09:44:58;;;;;;;2.22;1.38;;;;;;;-139.48;100.00;61774.03;4974222;28;20045;-65
2021/10/04 09:47:43;;;;;;;1.80;1.35;;;;;;;-139.48;100.00;61774.03;4972934;28;20057;-65
2021/10/04 09:50:28;;;;;;;1.30;1.15;;;;;;;-139.48;100.00;61774.03;4972945;28;20049;-64
2021/10/04 09:53:13;;;;;;;1.77;1.20;;;;;;;-139.48;100.00;61774.03;4974159;28;20057;-65
2021/10/04 09:55:57;;;;;;;1.48;1.38;;;;;;;-139.48;100.00;61774.03;4974199;28;20555;-65
2021/10/04 09:58:41;;;;;;;2.13;1.40;;;;;;;-139.48;100.00;61774.03;4974043;28;20057;-66
2021/10/04 10:01:25;;;;;;;2.20;1.17;;;;;;;-139.48;100.00;61774.03;4959278;28;20443;-65
2021/10/04 10:04:09;;;;;;;2.08;1.20;;;;;;;-139.48;100.00;61774.03;4973183;28;20073;-65
2021/10/04 10:06:53;;;;;;;1.60;1.20;;;;;;;-139.48;100.00;61774.03;4959334;28;20057;-65
2021/10/04 10:09:38;;;;;;;1.45;1.17;;;;;;;-139.48;100.00;61774.03;4972841;28;20061;-65
2021/10/04 10:12:23;;;;;;;1.50;1.02;;;;;;;-139.48;100.00;61774.03;4976217;28;20061;-65
2021/10/04 10:15:07;;;;;;;1.20;1.10;;;;;;;-139.48;100.00;61774.03;4976620;28;20104;-64
2021/10/04 10:17:56;;;;;;;0.88;0.80;;;;;;;-139.48;100.00;61774.03;4976415;28;20046;-65
2021/10/04 10:20:42;;;;;;;1.73;1.10;;;;;;;-139.48;100.00;61774.03;4976383;28;20133;-65
2021/10/04 10:23:57;;;;;;;2.15;1.25;;;;;;;-139.48;100.00;61774.03;4976416;28;20109;-65
2021/10/04 10:26:58;;;;;;;2.15;1.05;;;;;;;-139.48;100.00;61774.03;4977095;28;20049;-65
2021/10/04 10:29:43;;;;;;;1.10;1.00;;;;;;;-139.48;100.00;61774.03;4976165;28;20523;-65
2021/10/04 10:32:35;;;;;;;1.00;0.77;;;;;;;-139.48;100.00;61774.03;4976383;28;20097;-65
2021/10/04 10:35:47;;;;;;;1.85;0.85;;;;;;;-139.48;100.00;61774.03;4977869;28;20081;-65
2021/10/04 10:39:01;;;;;;;0.95;0.80;;;;;;;-139.48;100.00;61774.03;4975582;28;20041;-65
2021/10/04 10:42:18;;;;;;;3.20;1.00;;;;;;;-139.48;100.00;61774.03;4975172;28;20132;-65
2021/10/04 10:45:04;;;;;;;4.22;1.23;;;;;;;-139.48;100.00;61774.03;4975266;28;20110;-65
2021/10/04 10:47:53;;;;;;;2.95;1.00;;;;;;;-139.48;100.00;61774.03;4976079;28;20130;-65
2021/10/04 10:50:41;;;;;;;1.13;1.05;;;;;;;-139.48;100.00;61774.03;4976026;28;20054;-65
2021/10/04 10:53:28;;;;;;;1.00;0.90;;;;;;;-139.48;100.00;61774.03;4974998;28;20554;-65
2021/10/04 10:56:12;;;;;;;0.80;0.80;;;;;;;-139.48;100.00;61774.03;4976217;28;20053;-65
2021/10/04 10:59:25;;;;;;;4.15;0.95;;;;;;;-139.48;100.00;61774.03;4961320;28;20050;-65
2021/10/04 11:02:46;;;;;;;1.33;0.73;;;;;;;-139.48;100.00;61774.03;4974794;28;20512;-65
2021/10/04 11:05:37;;;;;;;2.03;0.63;;;;;;;-139.48;100.00;61774.03;4974718;28;20623;-65
2021/10/04 11:08:45;;;;;;;1.00;0.75;;;;;;;-139.48;100.00;61774.03;4975743;28;20097;-65
2021/10/04 11:11:30;;;;;;;1.65;0.80;;;;;;;-139.48;100.00;61774.03;4975867;28;20053;-65
2021/10/04 11:14:16;;;;;;;1.25;0.82;;;;;;;-139.48;100.00;61774.03;4974616;28;20117;-64
2021/10/04 11:17:01;;;;;;;2.00;0.90;;;;;;;-139.48;100.00;61774.03;4975783;28;20419;-65
2021/10/04 11:19:45;;;;;;;0.70;0.70;;;;;;;-139.48;100.00;61774.03;4974675;28;20443;-65
2021/10/04 11:22:28;;;;;;;2.38;0.95;;;;;;;-139.48;100.00;61774.03;4960745;28;20403;-65
2021/10/04 11:25:12;;;;;;;1.13;0.80;;;;;;;-139.48;100.00;61774.03;4961085;28;20455;-64
2021/10/04 11:27:56;;;;;;;1.08;0.80;;;;;;;-139.48;100.00;61774.03;4960788;28;20058;-65
2021/10/04 11:30:56;;;;;;;0.90;0.90;;;;;;;-139.48;100.00;61774.03;4973922;28;20241;-65
2021/10/04 11:33:57;;;;;;;0.60;0.60;;;;;;;-139.48;100.00;61774.03;4974637;28;20156;-65
2021/10/04 11:36:52;;;;;;;1.33;0.90;;;;;;;-139.48;100.00;61774.03;4960862;28;20049;-65
2021/10/04 11:39:36;;;;;;;2.80;0.80;;;;;;;-139.48;100.00;61774.03;4974210;28;20089;-65
2021/10/04 11:42:22;;;;;;;2.97;0.80;;;;;;;-139.48;100.00;61774.03;4974083;28;20138;-65
2021/10/04 11:45:09;;;;;;;1.42;0.88;;;;;;;-139.48;100.00;61774.03;4974204;28;20129;-65
2021/10/04 11:47:53;;;;;;;0.80;0.70;;;;;;;-139.48;100.00;61774.03;4974317;28;20050;-65
2021/10/04 11:50:45;;;;;;;2.65;0.90;;;;;;;-139.48;100.00;61774.03;4974056;28;20049;-65
2021/10/04 11:53:30;;;;;;;1.85;0.90;;;;;;;-139.48;100.00;61774.03;4960127;28;20062;-65
2021/10/04 11:56:14;;;;;;;0.70;0.70;;;;;;;-139.48;100.00;61774.03;4975093;28;20049;-66
2021/10/04 11:58:58;;;;;;;1.30;0.73;;;;;;;-139.48;100.00;61774.03;4974730;28;20046;-65
2021/10/04 12:01:42;;;;;;;1.10;0.90;;;;;;;-139.48;100.00;61774.03;4973683;28;20623;-65
2021/10/04 12:04:26;;;;;;;3.63;2.00;;;;;;;-139.48;100.00;61774.03;4973638;28;20053;-65
2021/10/04 12:07:10;;;;;;;1.40;0.88;;;;;;;-139.48;100.00;61774.03;4973864;28;20057;-65
2021/10/04 12:09:55;;;;;;;0.70;0.70;;;;;;;-139.48;100.00;61774.03;4974433;28;20484;-65
2021/10/04 12:12:40;;;;;;;1.60;0.82;;;;;;;-139.48;100.00;61774.03;4973696;28;20058;-66
2021/10/04 12:15:26;;;;;;;0.65;0.65;;;;;;;-139.48;100.00;61774.03;4973529;28;20057;-65
2021/10/04 12:18:19;;;;;;;2.92;0.77;;;;;;;-139.48;100.00;61774.03;4973692;28;20408;-65
2021/10/04 12:21:23;;;;;;;2.65;1.00;;;;;;;-139.48;100.00;61774.03;4973430;28;20038;-65
2021/10/04 12:24:10;;;;;;;1.58;0.80;;;;;;;-139.48;100.00;61774.03;4960020;28;20070;-66
2021/10/04 12:27:06;;;;;;;0.75;0.75;;;;;;;-139.48;100.00;61774.03;4973457;28;20133;-66
2021/10/04 12:29:58;;;;;;;1.33;0.80;;;;;;;-139.48;100.00;61774.03;4973377;28;20066;-66
2021/10/04 12:32:46;;;;;;;0.60;0.60;;;;;;;-139.48;100.00;61774.03;4973121;28;20105;-65
2021/10/04 12:35:30;;;;;;;1.67;0.80;;;;;;;-139.48;100.00;61774.03;4973070;28;20058;-66